Time;durP1;ratioP1;P1;durP2;ratioP2;P2;SDS_P1;SDS_P2;PMS_P1;PMS_P2;Temp;Humidity;BMP_temperature;BMP_pressure;BME280_temperature;BME280_humidity;BME280_pressure;Samples;Min_cycle;Max_cycle;Signal;HPM_P1;HPM_P2
2021/12/20 00:00:15;;;;;;;22.85;13.45;;;3.50;99.90;;;;;;5117115;27;20270;-78
2021/12/20 00:02:44;;;;;;;20.15;12.85;;;3.20;99.90;;;;;;5124578;27;20200;-79
2021/12/20 00:05:12;;;;;;;17.58;11.40;;;3.30;99.90;;;;;;5113675;27;20301;-79
2021/12/20 00:07:39;;;;;;;22.92;12.35;;;;;;;;;;5124524;27;20722;-78
2021/12/20 00:10:08;;;;;;;20.80;11.95;;;3.30;99.90;;;;;;5118682;27;20213;-79
2021/12/20 00:12:35;;;;;;;19.30;12.98;;;3.30;99.90;;;;;;5120990;27;20313;-79
2021/12/20 00:15:02;;;;;;;20.13;12.65;;;;;;;;;;5118051;27;20220;-79
2021/12/20 00:17:30;;;;;;;17.45;12.32;;;;;;;;;;5120796;27;20590;-79
2021/12/20 00:19:57;;;;;;;17.35;11.63;;;;;;;;;;5112263;27;20693;-79
2021/12/20 00:22:24;;;;;;;21.90;13.85;;;;;;;;;;5113192;27;20209;-79
2021/12/20 00:24:51;;;;;;;20.65;13.25;;;;;;;;;;5124453;27;20198;-79
2021/12/20 00:27:20;;;;;;;17.50;11.88;;;3.30;99.90;;;;;;5117818;27;20234;-78
2021/12/20 00:29:47;;;;;;;21.80;13.38;;;3.60;99.90;;;;;;5117274;27;20198;-79
2021/12/20 00:32:15;;;;;;;20.33;12.57;;;;;;;;;;5116735;27;20829;-78
2021/12/20 00:34:42;;;;;;;22.27;13.82;;;;;;;;;;5123153;27;20673;-79
2021/12/20 00:40:20;;;;;;;18.42;12.02;;;;;;;;;;5115144;27;20256;-79
2021/12/20 00:42:46;;;;;;;19.80;13.05;;;3.40;99.90;;;;;;5120768;27;20202;-79
2021/12/20 00:45:14;;;;;;;20.45;12.48;;;;;;;;;;5123376;27;20193;-79
2021/12/20 00:47:42;;;;;;;17.25;11.20;;;3.40;99.90;;;;;;5123404;27;20202;-78
2021/12/20 00:50:11;;;;;;;22.13;13.32;;;3.30;99.90;;;;;;5118692;27;20198;-78
2021/12/20 00:52:39;;;;;;;19.75;12.50;;;;;;;;;;5117836;27;20208;-78
2021/12/20 00:55:06;;;;;;;22.95;11.73;;;;;;;;;;5120884;27;20250;-78
2021/12/20 00:57:34;;;;;;;21.02;11.45;;;;;;;;;;5125330;27;20205;-78
2021/12/20 01:00:03;;;;;;;20.63;12.32;;;3.40;99.90;;;;;;5118897;27;20217;-78
2021/12/20 01:02:30;;;;;;;21.67;12.00;;;;;;;;;;5123888;27;20193;-78
2021/12/20 01:04:58;;;;;;;23.67;11.30;;;;;;;;;;5120087;27;20261;-78
2021/12/20 01:07:25;;;;;;;19.45;11.23;;;;;;;;;;5115670;27;20325;-79
2021/12/20 01:09:57;;;;;;;22.92;12.38;;;;;;;;;;5118948;27;20206;-79
2021/12/20 01:12:28;;;;;;;23.50;11.95;;;;;;;;;;5121293;27;20225;-78
2021/12/20 01:14:59;;;;;;;25.70;13.82;;;;;;;;;;5116222;27;20221;-79
2021/12/20 01:17:29;;;;;;;20.88;13.85;;;;;;;;;;5114741;27;20294;-79
2021/12/20 01:19:56;;;;;;;25.15;13.52;;;;;;;;;;5115309;27;20202;-78
2021/12/20 01:22:23;;;;;;;22.70;13.38;;;;;;;;;;5117236;27;20212;-78
2021/12/20 01:24:51;;;;;;;15.77;12.57;;;;;;;;;;5114659;27;20220;-78
2021/12/20 01:27:18;;;;;;;22.15;13.80;;;;;;;;;;5116872;27;20226;-79
2021/12/20 01:29:45;;;;;;;18.50;11.65;;;;;;;;;;5123225;27;20601;-79
2021/12/20 01:32:12;;;;;;;26.52;13.70;;;;;;;;;;5116351;27;20243;-79
2021/12/20 01:34:41;;;;;;;21.27;13.13;;;2.90;99.90;;;;;;5119203;27;20273;-79
2021/12/20 01:37:08;;;;;;;20.65;12.45;;;;;;;;;;5117283;27;20262;-78
2021/12/20 01:39:35;;;;;;;21.10;12.30;;;;;;;;;;5118871;27;20614;-78
2021/12/20 01:42:04;;;;;;;18.88;12.52;;;;;;;;;;5116976;27;20202;-78
2021/12/20 01:44:32;;;;;;;21.08;14.32;;;;;;;;;;5119389;27;20221;-79
2021/12/20 01:47:02;;;;;;;20.33;12.43;;;;;;;;;;5116295;27;20225;-79
2021/12/20 01:49:37;;;;;;;18.98;12.48;;;;;;;;;;5116572;27;20201;-78
2021/12/20 01:52:12;;;;;;;18.50;11.23;;;3.10;99.90;;;;;;5122591;27;20221;-78
2021/12/20 01:54:39;;;;;;;21.35;12.38;;;;;;;;;;5117085;27;20324;-79
2021/12/20 01:57:07;;;;;;;17.92;12.15;;;;;;;;;;5124267;27;20255;-78
2021/12/20 01:59:34;;;;;;;19.63;14.10;;;;;;;;;;5113660;27;20213;-79
2021/12/20 02:02:01;;;;;;;22.98;13.18;;;;;;;;;;5115790;27;20698;-79
2021/12/20 02:04:29;;;;;;;19.10;11.50;;;;;;;;;;5122791;27;20197;-79
2021/12/20 02:06:56;;;;;;;18.27;11.15;;;;;;;;;;5116954;27;20229;-78
2021/12/20 02:09:25;;;;;;;24.27;12.27;;;;;;;;;;5112420;27;20287;-79
2021/12/20 02:11:52;;;;;;;22.00;12.50;;;3.10;99.90;;;;;;5107364;28;20209;-79
2021/12/20 02:14:20;;;;;;;21.98;15.32;;;3.20;99.90;;;;;;5115013;27;20209;-79
2021/12/20 02:16:47;;;;;;;19.65;11.48;;;;;;;;;;5119761;27;20197;-79
2021/12/20 02:19:15;;;;;;;23.38;11.93;;;;;;;;;;5120199;27;20208;-79
2021/12/20 02:21:45;;;;;;;20.70;12.25;;;3.10;99.90;;;;;;5116189;27;20204;-79
2021/12/20 02:24:13;;;;;;;22.13;12.95;;;3.20;99.90;;;;;;5117200;27;20682;-79
2021/12/20 02:26:40;;;;;;;21.40;12.05;;;;;;;;;;5120614;27;20240;-78
2021/12/20 02:29:09;;;;;;;22.42;12.95;;;;;;;;;;5117912;27;20281;-78
2021/12/20 02:37:26;;;;;;;17.17;11.52;;;3.20;99.90;;;;;;5117499;27;20611;-79
2021/12/20 02:39:55;;;;;;;21.58;13.07;;;3.10;99.90;;;;;;5119392;27;20212;-78
2021/12/20 02:42:30;;;;;;;22.15;12.65;;;;;;;;;;5121966;27;20193;-78
2021/12/20 02:45:10;;;;;;;17.13;12.15;;;;;;;;;;5117886;28;20201;-78
2021/12/20 02:47:39;;;;;;;25.45;14.10;;;;;;;;;;5107562;28;20236;-78
2021/12/20 02:50:07;;;;;;;23.92;12.13;;;;;;;;;;5116092;28;20248;-78
2021/12/20 02:52:36;;;;;;;22.98;13.45;;;;;;;;;;5117830;28;20226;-78
2021/12/20 02:55:03;;;;;;;22.92;13.02;;;;;;;;;;5115766;28;20393;-78
2021/12/20 02:57:31;;;;;;;18.65;12.23;;;;;;;;;;5119709;28;20189;-79
2021/12/20 02:59:58;;;;;;;16.33;11.45;;;;;;;;;;5116598;28;20243;-79
2021/12/20 03:02:25;;;;;;;21.77;12.27;;;;;;;;;;5115813;28;20551;-79
2021/12/20 03:04:52;;;;;;;19.75;12.52;;;;;;;;;;5114854;28;20300;-79
2021/12/20 03:07:25;;;;;;;24.95;13.10;;;3.10;99.90;;;;;;5116748;28;20225;-78
2021/12/20 03:09:59;;;;;;;23.08;11.77;;;2.90;99.90;;;;;;5108627;28;20210;-79
2021/12/20 03:12:29;;;;;;;22.40;11.27;;;;;;;;;;5118468;28;20205;-78
2021/12/20 03:15:02;;;;;;;24.38;12.27;;;;;;;;;;5119344;28;20249;-79
2021/12/20 03:17:29;;;;;;;18.30;12.10;;;;;;;;;;5118023;28;20714;-79
2021/12/20 03:19:56;;;;;;;23.25;11.95;;;;;;;;;;5115842;28;20686;-79
2021/12/20 03:22:24;;;;;;;19.73;12.38;;;;;;;;;;5121602;28;20236;-78
2021/12/20 03:24:51;;;;;;;17.73;10.35;;;;;;;;;;5124321;27;20206;-79
2021/12/20 03:27:20;;;;;;;16.95;11.45;;;3.00;99.90;;;;;;5117255;27;20242;-78
2021/12/20 03:29:47;;;;;;;17.40;11.13;;;;;;;;;;5117480;27;20188;-78
2021/12/20 03:32:14;;;;;;;22.40;12.82;;;;;;;;;;5112588;27;20202;-78
2021/12/20 03:34:42;;;;;;;21.15;11.90;;;;;;;;;;5124334;27;20257;-78
2021/12/20 03:37:09;;;;;;;17.13;11.15;;;;;;;;;;5121473;27;20202;-78
2021/12/20 03:39:36;;;;;;;19.20;11.40;;;;;;;;;;5121079;27;20318;-78
2021/12/20 03:42:04;;;;;;;22.90;13.65;;;3.10;99.90;;;;;;5120231;27;20225;-78
2021/12/20 03:44:36;;;;;;;26.08;13.70;;;3.10;99.90;;;;;;5124634;27;20625;-78
2021/12/20 03:47:04;;;;;;;23.20;12.95;;;;;;;;;;5120067;27;20698;-78
2021/12/20 03:49:31;;;;;;;20.15;11.70;;;;;;;;;;5118529;27;20225;-78
2021/12/20 03:51:59;;;;;;;22.58;13.38;;;;;;;;;;5122293;27;20305;-79
2021/12/20 03:54:26;;;;;;;23.10;12.82;;;;;;;;;;5126146;27;20193;-79
2021/12/20 03:56:53;;;;;;;20.85;14.02;;;;;;;;;;5120547;27;20393;-79
2021/12/20 03:59:20;;;;;;;22.10;12.20;;;;;;;;;;5122388;27;20254;-78
2021/12/20 04:01:50;;;;;;;21.15;14.32;;;3.10;99.90;;;;;;5114385;27;20376;-78
2021/12/20 04:04:17;;;;;;;22.25;12.93;;;;;;;;;;5122588;27;20304;-79
2021/12/20 04:06:44;;;;;;;25.55;12.80;;;;;;;;;;5120172;27;20222;-79
2021/12/20 04:09:11;;;;;;;21.33;13.00;;;;;;;;;;5120220;27;20292;-79
2021/12/20 04:11:38;;;;;;;20.40;12.27;;;;;;;;;;5123239;27;20289;-79
2021/12/20 04:14:06;;;;;;;22.52;13.23;;;;;;;;;;5118387;27;20198;-79
2021/12/20 04:16:34;;;;;;;21.25;13.35;;;;;;;;;;5120791;27;20605;-78
2021/12/20 04:19:02;;;;;;;19.52;12.48;;;3.00;99.90;;;;;;5119968;27;20212;-79
2021/12/20 04:21:30;;;;;;;20.38;11.82;;;;;;;;;;5117739;27;20538;-78
2021/12/20 04:23:57;;;;;;;20.02;11.55;;;;;;;;;;5118601;27;20197;-78
2021/12/20 04:26:25;;;;;;;21.90;11.70;;;;;;;;;;5115129;27;20194;-78
2021/12/20 04:28:52;;;;;;;20.58;13.48;;;;;;;;;;5122729;27;20359;-78
2021/12/20 04:31:19;;;;;;;23.23;13.13;;;;;;;;;;5117929;27;20746;-78
2021/12/20 04:33:46;;;;;;;19.52;12.93;;;;;;;;;;5123688;27;20197;-78
2021/12/20 04:36:15;;;;;;;22.13;11.55;;;;;;;;;;5120785;27;20277;-79
2021/12/20 04:38:43;;;;;;;19.63;12.70;;;;;;;;;;5122139;27;20200;-78
2021/12/20 04:41:10;;;;;;;21.42;12.48;;;;;;;;;;5119315;27;20284;-78
2021/12/20 04:43:37;;;;;;;19.63;12.70;;;;;;;;;;5119878;27;20240;-79
2021/12/20 04:46:05;;;;;;;20.67;12.73;;;;;;;;;;5118602;27;20284;-78
2021/12/20 04:48:32;;;;;;;20.77;11.60;;;;;;;;;;5121262;27;21154;-78
2021/12/20 04:50:59;;;;;;;17.95;11.85;;;;;;;;;;5125014;27;20205;-79
2021/12/20 04:53:28;;;;;;;21.83;12.43;;;3.10;99.90;;;;;;5117798;27;20610;-79
2021/12/20 04:55:55;;;;;;;21.45;13.00;;;;;;;;;;5116065;27;20252;-79
2021/12/20 04:58:22;;;;;;;18.42;12.20;;;;;;;;;;5119489;27;20845;-78
2021/12/20 05:00:49;;;;;;;20.40;12.98;;;;;;;;;;5117910;27;20207;-78
2021/12/20 05:03:16;;;;;;;19.05;11.55;;;;;;;;;;5122059;27;20276;-78
2021/12/20 05:05:43;;;;;;;21.20;11.18;;;;;;;;;;5122455;27;20228;-79
2021/12/20 05:08:12;;;;;;;17.27;11.38;;;;;;;;;;5119406;27;20324;-79
2021/12/20 05:10:42;;;;;;;25.10;12.38;;;;;;;;;;5125659;27;20273;-79
2021/12/20 05:13:10;;;;;;;21.23;12.15;;;3.10;99.90;;;;;;5121017;27;20198;-79
2021/12/20 05:15:39;;;;;;;20.15;10.95;;;3.10;99.90;;;;;;5114757;27;20275;-79
2021/12/20 05:18:07;;;;;;;22.83;12.10;;;3.00;99.90;;;;;;5121955;27;20580;-78
2021/12/20 05:20:35;;;;;;;18.98;11.70;;;3.10;99.90;;;;;;5123187;27;20226;-79
2021/12/20 05:23:04;;;;;;;19.75;10.13;;;;;;;;;;5120286;27;20226;-79
2021/12/20 05:25:31;;;;;;;21.90;11.88;;;;;;;;;;5123785;27;20251;-79
2021/12/20 05:28:00;;;;;;;17.73;11.75;;;;;;;;;;5120042;27;20936;-79
2021/12/20 05:30:27;;;;;;;20.98;11.95;;;;;;;;;;5118445;27;20658;-79
2021/12/20 05:32:55;;;;;;;17.05;10.63;;;;;;;;;;5121732;27;20650;-79
2021/12/20 05:35:23;;;;;;;17.70;10.70;;;2.90;99.90;;;;;;5121142;27;20205;-79
2021/12/20 05:37:50;;;;;;;20.55;12.32;;;5.20;99.90;;;;;;5124252;27;20197;-79
2021/12/20 05:40:18;;;;;;;18.67;9.93;;;;;;;;;;5120767;27;20292;-79
2021/12/20 05:42:46;;;;;;;19.80;11.60;;;2.90;99.90;;;;;;5124689;27;20200;-81
2021/12/20 05:45:14;;;;;;;16.50;9.85;;;;;;;;;;5126024;27;20208;-81
2021/12/20 05:47:42;;;;;;;21.27;12.15;;;;;;;;;;5122616;27;20221;-81
2021/12/20 05:50:10;;;;;;;18.48;10.75;;;3.10;99.90;;;;;;5120520;27;20240;-80
2021/12/20 05:52:38;;;;;;;24.77;12.85;;;3.00;99.90;;;;;;5125391;27;20630;-80
2021/12/20 05:55:07;;;;;;;16.70;10.45;;;3.10;99.90;;;;;;5122129;27;20197;-82
2021/12/20 05:57:34;;;;;;;21.42;11.70;;;;;;;;;;5124422;27;20205;-82
2021/12/20 06:00:01;;;;;;;21.55;11.85;;;;;;;;;;5122952;27;20228;-81
2021/12/20 06:02:30;;;;;;;22.55;11.00;;;;;;;;;;5119020;27;20206;-81
2021/12/20 06:04:57;;;;;;;20.88;11.82;;;;;;;;;;5117385;27;20650;-81
2021/12/20 06:07:25;;;;;;;22.23;12.75;;;;;;;;;;5116945;27;20317;-81
2021/12/20 06:09:52;;;;;;;20.23;11.18;;;;;;;;;;5123291;27;20198;-81
2021/12/20 06:12:19;;;;;;;18.50;11.05;;;;;;;;;;5124010;27;20701;-81
2021/12/20 06:14:46;;;;;;;21.55;12.10;;;;;;;;;;5114610;27;20289;-82
2021/12/20 06:17:13;;;;;;;20.08;10.95;;;;;;;;;;5116446;27;20290;-81
2021/12/20 06:19:42;;;;;;;18.65;11.77;;;;;;;;;;5118213;27;20189;-81
2021/12/20 06:22:10;;;;;;;17.15;11.40;;;;;;;;;;5121628;27;20202;-81
2021/12/20 06:24:37;;;;;;;18.92;10.75;;;;;;;;;;5119469;27;20208;-81
2021/12/20 06:27:09;;;;;;;18.38;11.45;;;;;;;;;;5118942;27;20198;-82
2021/12/20 06:29:36;;;;;;;20.45;12.48;;;;;;;;;;5118673;27;20938;-80
2021/12/20 06:32:03;;;;;;;20.38;10.77;;;;;;;;;;5114466;27;20189;-80
2021/12/20 06:34:31;;;;;;;24.65;11.88;;;2.20;99.90;;;;;;5113573;27;20229;-80
2021/12/20 06:36:59;;;;;;;17.60;12.15;;;;;;;;;;5112463;27;20861;-80
2021/12/20 06:39:27;;;;;;;18.20;12.15;;;;;;;;;;5118024;27;20205;-79
2021/12/20 06:41:54;;;;;;;25.30;14.07;;;;;;;;;;5112375;27;20243;-79
2021/12/20 06:44:21;;;;;;;23.58;12.07;;;;;;;;;;5111390;27;20289;-80
2021/12/20 06:46:48;;;;;;;19.45;12.20;;;;;;;;;;5116409;28;20222;-81
2021/12/20 06:49:15;;;;;;;21.80;13.63;;;;;;;;;;5112854;28;20301;-80
2021/12/20 06:51:44;;;;;;;18.08;12.13;;;3.10;99.90;;;;;;5115363;28;20294;-81
2021/12/20 06:54:13;;;;;;;20.83;14.02;;;;;;;;;;5116844;28;20229;-81
2021/12/20 06:56:40;;;;;;;25.05;13.98;;;;;;;;;;5110343;28;20289;-81
2021/12/20 06:59:08;;;;;;;23.63;12.23;;;;;;;;;;5114650;28;20214;-81
2021/12/20 07:01:35;;;;;;;29.55;13.40;;;;;;;;;;5113789;28;20789;-81
2021/12/20 07:04:02;;;;;;;18.67;12.10;;;;;;;;;;5104924;28;20674;-81
2021/12/20 07:06:30;;;;;;;22.42;13.18;;;;;;;;;;5118420;28;20229;-81
2021/12/20 07:08:57;;;;;;;21.58;12.38;;;;;;;;;;5120789;28;20228;-81
2021/12/20 07:11:25;;;;;;;25.25;13.05;;;;;;;;;;5115536;28;20200;-81
2021/12/20 07:13:54;;;;;;;18.92;12.23;;;;;;;;;;5115945;28;20357;-80
2021/12/20 07:16:22;;;;;;;20.77;11.45;;;;;;;;;;5116660;28;20280;-81
2021/12/20 07:18:49;;;;;;;24.95;13.63;;;;;;;;;;5121026;27;20197;-81
2021/12/20 07:21:17;;;;;;;18.45;12.35;;;;;;;;;;5124118;27;20194;-82
2021/12/20 07:23:44;;;;;;;23.73;12.10;;;;;;;;;;5124259;27;20742;-81
2021/12/20 07:26:12;;;;;;;19.27;11.80;;;;;;;;;;5119514;27;20685;-81
2021/12/20 07:28:42;;;;;;;20.58;12.77;;;;;;;;;;5124885;27;20315;-81
2021/12/20 07:31:10;;;;;;;21.50;12.57;;;;;;;;;;5122402;27;20186;-81
2021/12/20 07:33:37;;;;;;;19.10;12.27;;;;;;;;;;5119477;27;20239;-81
2021/12/20 07:36:04;;;;;;;23.38;12.80;;;;;;;;;;5119949;27;20205;-81
2021/12/20 07:38:31;;;;;;;15.23;10.90;;;;;;;;;;5121409;27;20209;-81
2021/12/20 07:40:59;;;;;;;22.42;12.02;;;;;;;;;;5121968;27;20232;-82
2021/12/20 07:43:26;;;;;;;22.95;12.43;;;;;;;;;;5118312;27;20224;-81
2021/12/20 07:45:54;;;;;;;22.45;12.95;;;;;;;;;;5119365;27;20207;-81
2021/12/20 07:48:22;;;;;;;17.85;12.32;;;3.30;99.90;;;;;;5123320;27;20315;-81
2021/12/20 07:50:51;;;;;;;28.30;14.48;;;;;;;;;;5122143;27;20262;-81
2021/12/20 07:53:18;;;;;;;21.95;13.02;;;;;;;;;;5120266;27;20197;-81
2021/12/20 07:55:45;;;;;;;29.17;13.25;;;;;;;;;;5119982;27;20198;-81
2021/12/20 07:58:12;;;;;;;25.95;12.70;;;;;;;;;;5127034;27;20675;-81
2021/12/20 08:00:40;;;;;;;22.33;14.30;;;;;;;;;;5123888;27;20229;-83
2021/12/20 08:03:09;;;;;;;21.60;12.48;;;3.40;99.90;;;;;;5126983;27;20240;-83
2021/12/20 08:05:36;;;;;;;20.67;11.63;;;;;;;;;;5121553;27;20214;-83
2021/12/20 08:08:03;;;;;;;22.67;12.63;;;;;;;;;;5125218;27;20286;-83
2021/12/20 08:10:31;;;;;;;13.98;9.63;;;;;;;;;;5126181;27;20228;-83
2021/12/20 08:12:58;;;;;;;17.60;10.70;;;;;;;;;;5124651;27;20193;-83
2021/12/20 08:15:26;;;;;;;20.15;11.13;;;;;;;;;;5120486;27;20209;-83
2021/12/20 08:17:54;;;;;;;18.13;11.40;;;;;;;;;;5120296;27;20202;-83
2021/12/20 08:20:23;;;;;;;25.20;13.98;;;;;;;;;;5121469;27;20724;-83
2021/12/20 08:22:50;;;;;;;19.52;11.73;;;;;;;;;;5117269;27;20747;-83
2021/12/20 08:25:19;;;;;;;18.27;10.68;;;3.20;99.90;;;;;;5120316;27;20308;-83
2021/12/20 08:27:47;;;;;;;14.82;10.70;;;;;;;;;;5125040;27;20197;-83
2021/12/20 08:30:14;;;;;;;18.80;11.00;;;;;;;;;;5117817;27;20202;-83
2021/12/20 08:32:41;;;;;;;18.77;11.40;;;;;;;;;;5117686;27;20242;-83
2021/12/20 08:35:10;;;;;;;19.45;12.30;;;3.40;99.90;;;;;;5121847;27;20693;-84
2021/12/20 08:37:42;;;;;;;15.05;10.55;;;;;;;;;;5118292;27;20201;-83
2021/12/20 08:40:12;;;;;;;17.95;10.60;;;3.70;99.90;;;;;;5124070;27;20282;-83
2021/12/20 08:42:40;;;;;;;18.58;10.98;;;3.50;99.90;;;;;;5120409;27;20198;-84
2021/12/20 08:45:08;;;;;;;22.00;13.27;;;5.80;99.90;;;;;;5122245;27;20246;-83
2021/12/20 08:47:36;;;;;;;21.08;11.55;;;;;;;;;;5123414;27;20225;-83
2021/12/20 08:50:05;;;;;;;18.77;12.07;;;;;;;;;;5122422;27;20247;-83
2021/12/20 08:52:32;;;;;;;20.88;13.25;;;;;;;;;;5117781;27;20225;-84
2021/12/20 08:55:00;;;;;;;21.55;13.10;;;3.60;99.90;;;;;;5121957;27;20213;-83
2021/12/20 08:57:28;;;;;;;20.77;12.20;;;;;;;;;;5120886;27;20262;-83
2021/12/20 08:59:55;;;;;;;19.67;12.32;;;;;;;;;;5119043;27;20310;-82
2021/12/20 09:02:22;;;;;;;16.50;11.65;;;;;;;;;;5118965;27;20223;-83
2021/12/20 09:04:49;;;;;;;21.88;12.55;;;;;;;;;;5118701;27;20606;-83
2021/12/20 09:07:17;;;;;;;19.30;12.57;;;;;;;;;;5120248;27;20650;-83
2021/12/20 09:09:47;;;;;;;19.48;12.40;;;3.70;99.90;;;;;;5122181;27;20226;-83
2021/12/20 09:12:16;;;;;;;22.30;12.70;;;;;;;;;;5117488;27;20197;-83
2021/12/20 09:14:44;;;;;;;17.90;10.10;;;;;;;;;;5122138;27;20258;-83
2021/12/20 09:17:11;;;;;;;18.35;11.40;;;;;;;;;;5115088;27;20194;-83
2021/12/20 09:19:39;;;;;;;25.27;13.27;;;;;;;;;;5117459;27;20193;-83
2021/12/20 09:22:07;;;;;;;20.75;13.63;;;3.70;99.90;;;;;;5117109;27;20375;-83
2021/12/20 09:24:34;;;;;;;20.17;11.40;;;;;;;;;;5117453;27;20671;-83
2021/12/20 09:27:01;;;;;;;30.95;12.98;;;;;;;;;;5114222;27;20651;-83
2021/12/20 09:29:30;;;;;;;20.42;13.55;;;;;;;;;;5118036;27;20366;-83
2021/12/20 09:31:57;;;;;;;29.83;12.50;;;3.80;99.90;;;;;;5111492;27;20950;-83
2021/12/20 09:34:25;;;;;;;29.30;13.45;;;;;;;;;;5118222;27;20230;-83
2021/12/20 09:36:54;;;;;;;23.33;13.07;;;;;;;;;;5116172;27;20236;-83
2021/12/20 09:39:21;;;;;;;24.00;13.20;;;;;;;;;;5116691;27;20655;-83
2021/12/20 09:42:01;;;;;;;30.58;14.00;;;;;;;;;;5112905;27;20217;-83
2021/12/20 09:44:30;;;;;;;21.45;11.82;;;;;;;;;;5117997;27;20554;-83
2021/12/20 09:46:57;;;;;;;18.00;11.95;;;;;;;;;;5116871;27;20194;-84
2021/12/20 09:49:25;;;;;;;20.85;11.88;;;;;;;;;;5116583;27;20238;-84
2021/12/20 09:51:52;;;;;;;24.10;13.13;;;;;;;;;;5115255;27;20232;-83
2021/12/20 09:54:20;;;;;;;20.95;12.93;;;;;;;;;;5116294;27;20225;-83
2021/12/20 09:56:47;;;;;;;14.20;9.80;;;;;;;;;;5117724;27;20198;-82
2021/12/20 09:59:19;;;;;;;23.10;11.93;;;4.30;99.90;;;;;;5122278;27;20250;-83
2021/12/20 10:01:49;;;;;;;16.52;10.75;;;;;;;;;;5119310;27;20204;-82
2021/12/20 10:04:23;;;;;;;18.27;11.20;;;;;;;;;;5116646;27;20263;-83
2021/12/20 10:06:54;;;;;;;16.23;9.50;;;4.50;99.90;;;;;;5120824;27;20289;-82
2021/12/20 10:09:27;;;;;;;14.45;9.32;;;4.40;99.90;;;;;;5119587;27;20228;-83
2021/12/20 10:12:12;;;;;;;20.45;11.98;;;;;;;;;;5117609;27;20296;-82
2021/12/20 10:14:53;;;;;;;22.08;12.98;;;;;;;;;;5118541;27;20284;-82
2021/12/20 10:17:26;;;;;;;21.13;12.07;;;4.60;99.90;;;;;;5115490;27;20221;-83
2021/12/20 10:19:54;;;;;;;21.30;11.32;;;4.60;99.90;;;;;;5117167;27;20197;-82
2021/12/20 10:22:28;;;;;;;15.60;10.80;;;4.70;99.90;;;;;;5114025;27;20197;-83
2021/12/20 10:25:03;;;;;;;18.73;11.45;;;;;;;;;;5118019;27;20201;-83
2021/12/20 10:27:36;;;;;;;19.30;12.10;;;4.70;99.90;;;;;;5116438;27;20595;-82
2021/12/20 10:30:24;;;;;;;17.90;11.95;;;4.90;99.90;;;;;;5114528;27;20232;-82
2021/12/20 10:32:54;;;;;;;19.23;12.23;;;;;;;;;;5115512;27;20773;-83
2021/12/20 10:35:44;;;;;;;17.00;10.57;;;5.00;99.90;;;;;;5111957;27;20303;-82
2021/12/20 10:38:26;;;;;;;15.02;9.27;;;4.90;99.90;;;;;;5117091;27;20198;-83
2021/12/20 10:40:55;;;;;;;23.48;12.05;;;;;;;;;;5119983;27;20254;-83
2021/12/20 10:43:24;;;;;;;12.88;9.05;;;5.00;99.90;;;;;;5117553;28;20719;-82
2021/12/20 10:45:54;;;;;;;16.10;8.98;;;;;;;;;;5117749;27;20194;-82
2021/12/20 10:48:23;;;;;;;21.40;9.90;;;;;;;;;;5119362;28;20202;-82
2021/12/20 10:50:50;;;;;;;13.07;7.90;;;;;;;;;;5117859;28;20276;-82
2021/12/20 10:53:20;;;;;;;14.32;8.32;;;5.30;99.90;;;;;;5116370;28;20255;-82
2021/12/20 10:55:49;;;;;;;13.05;8.57;;;5.20;99.90;;;;;;5120388;28;20280;-83
2021/12/20 10:58:32;;;;;;;9.85;7.60;;;5.20;99.90;;;;;;5120380;28;21075;-82
2021/12/20 11:01:36;;;;;;;12.73;7.13;;;5.30;99.90;;;;;;5117703;28;20209;-82
2021/12/20 11:04:08;;;;;;;6.43;4.60;;;5.30;99.90;;;;;;5119824;28;20204;-83
2021/12/20 11:09:25;;;;;;;8.90;5.50;;;5.20;99.90;;;;;;5110526;28;20238;-82
2021/12/20 11:11:55;;;;;;;11.18;6.85;;;5.00;99.90;;;;;;5119477;28;20258;-83
2021/12/20 11:14:24;;;;;;;9.60;7.03;;;4.90;99.90;;;;;;5119907;28;20301;-83
2021/12/20 11:16:53;;;;;;;9.02;6.55;;;4.70;99.90;;;;;;5121861;28;20262;-84
2021/12/20 11:19:27;;;;;;;12.52;7.35;;;4.80;99.90;;;;;;5117539;28;20301;-82
2021/12/20 11:22:04;;;;;;;9.93;7.82;;;4.70;99.90;;;;;;5122866;28;20197;-81
2021/12/20 11:24:35;;;;;;;10.77;7.47;;;;;;;;;;5120134;28;20299;-82
2021/12/20 11:27:05;;;;;;;17.70;7.40;;;4.60;99.90;;;;;;5122470;28;20276;-83
2021/12/20 11:29:32;;;;;;;10.98;7.82;;;4.50;99.90;;;;;;5116918;28;20298;-83
2021/12/20 11:32:01;;;;;;;17.50;8.73;;;3.80;99.90;;;;;;5110644;28;20674;-82
2021/12/20 11:34:30;;;;;;;16.98;9.25;;;;;;;;;;5117875;28;20208;-82
2021/12/20 11:36:59;;;;;;;11.93;8.20;;;;;;;;;;5110598;28;20745;-82
2021/12/20 11:39:26;;;;;;;15.93;9.50;;;;;;;;;;5117445;28;20205;-81
2021/12/20 11:41:54;;;;;;;11.55;7.45;;;;;;;;;;5114007;28;20258;-82
2021/12/20 11:44:25;;;;;;;13.10;8.50;;;4.20;99.90;;;;;;5112833;28;20203;-82
2021/12/20 11:47:01;;;;;;;12.82;8.95;;;4.30;99.90;;;;;;5112254;28;20647;-82
2021/12/20 11:49:31;;;;;;;12.77;8.25;;;4.50;99.90;;;;;;5114801;28;20301;-82
2021/12/20 11:52:01;;;;;;;17.63;7.45;;;4.60;99.90;;;;;;5117063;28;20651;-81
2021/12/20 11:54:44;;;;;;;15.18;6.72;;;;;;;;;;5112096;28;20194;-82
2021/12/20 11:57:50;;;;;;;10.10;5.80;;;4.80;99.90;;;;;;5114319;28;20210;-82
2021/12/20 12:00:29;;;;;;;10.52;7.38;;;4.60;99.90;;;;;;5115008;28;20232;-82
2021/12/20 12:02:58;;;;;;;15.60;7.25;;;4.90;99.90;;;;;;5115563;28;20221;-82
2021/12/20 12:05:37;;;;;;;9.02;6.25;;;5.00;99.90;;;;;;5122480;27;20323;-81
2021/12/20 12:08:34;;;;;;;9.38;5.85;;;5.10;99.90;;;;;;5121401;27;20246;-82
2021/12/20 12:11:31;;;;;;;12.32;5.88;;;5.20;99.90;;;;;;5118761;27;20274;-82
2021/12/20 12:14:33;;;;;;;10.88;6.65;;;5.10;99.80;;;;;;5118602;27;20202;-83
2021/12/20 12:17:05;;;;;;;10.82;7.22;;;5.10;99.90;;;;;;5118572;27;20573;-83
2021/12/20 12:19:56;;;;;;;9.20;6.30;;;5.20;99.90;;;;;;5121136;27;20210;-82
2021/12/20 12:22:33;;;;;;;11.48;7.40;;;;;;;;;;5123136;27;20201;-83
2021/12/20 12:25:00;;;;;;;10.80;5.78;;;;;;;;;;5122823;27;20772;-83
2021/12/20 12:27:30;;;;;;;9.48;6.65;;;5.00;99.90;;;;;;5116909;27;20263;-82
2021/12/20 12:30:30;;;;;;;9.77;8.75;;;5.00;99.90;;;;;;5122563;27;21023;-83
2021/12/20 12:33:19;;;;;;;11.32;6.85;;;5.00;99.70;;;;;;5114453;27;20219;-82
2021/12/20 12:35:49;;;;;;;9.75;6.40;;;;;;;;;;5123934;27;20251;-82
2021/12/20 12:38:19;;;;;;;10.27;6.40;;;5.00;99.90;;;;;;5122814;27;20262;-83
2021/12/20 12:40:49;;;;;;;11.07;7.47;;;;;;;;;;5123949;27;20901;-82
2021/12/20 12:43:26;;;;;;;11.32;7.28;;;5.00;99.90;;;;;;5120467;27;20194;-82
2021/12/20 12:45:54;;;;;;;18.23;9.48;;;;;;;;;;5117673;27;20197;-82
2021/12/20 12:48:34;;;;;;;15.63;9.27;;;;;;;;;;5118816;27;20525;-82
2021/12/20 12:51:05;;;;;;;13.82;7.32;;;;;;;;;;5115778;27;20705;-82
2021/12/20 12:53:40;;;;;;;10.15;6.43;;;4.90;99.90;;;;;;5120773;27;20258;-82
2021/12/20 12:56:29;;;;;;;11.10;7.00;;;5.00;99.70;;;;;;5124744;27;20561;-82
2021/12/20 12:59:24;;;;;;;9.95;6.78;;;5.00;99.90;;;;;;5125432;27;20547;-82
2021/12/20 13:01:53;;;;;;;12.25;7.75;;;4.80;99.90;;;;;;5124452;27;20205;-82
2021/12/20 13:04:20;;;;;;;15.80;9.32;;;;;;;;;;5119298;27;20212;-82
2021/12/20 13:06:48;;;;;;;12.55;7.68;;;;;;;;;;5123396;27;20250;-83
2021/12/20 13:09:15;;;;;;;11.00;7.35;;;;;;;;;;5121275;27;20198;-83
2021/12/20 13:11:44;;;;;;;12.23;8.70;;;;;;;;;;5116727;27;20255;-83
2021/12/20 13:14:16;;;;;;;16.13;10.63;;;5.00;99.90;;;;;;5119782;27;20203;-83
2021/12/20 13:16:57;;;;;;;15.20;9.27;;;4.90;99.90;;;;;;5114463;27;20220;-82
2021/12/20 13:19:51;;;;;;;19.15;10.30;;;4.90;99.90;;;;;;5116466;27;20215;-84
2021/12/20 13:22:19;;;;;;;12.98;8.80;;;;;;;;;;5118984;27;20213;-82
2021/12/20 13:24:46;;;;;;;11.75;8.82;;;;;;;;;;5125122;27;20233;-82
2021/12/20 13:27:13;;;;;;;11.95;8.52;;;;;;;;;;5118016;27;20253;-82
2021/12/20 13:29:49;;;;;;;16.30;8.82;;;;;;;;;;5133603;27;20228;-82
2021/12/20 13:32:20;;;;;;;15.68;9.02;;;4.70;99.90;;;;;;5118590;27;20230;-83
2021/12/20 13:34:47;;;;;;;13.63;8.90;;;;;;;;;;5119026;27;20197;-82
2021/12/20 13:37:15;;;;;;;13.25;8.18;;;;;;;;;;5121888;27;20206;-83
2021/12/20 13:39:53;;;;;;;13.20;7.60;;;4.50;99.90;;;;;;5118916;27;20566;-83
2021/12/20 13:42:20;;;;;;;13.98;7.72;;;;;;;;;;5122506;27;20670;-83
2021/12/20 13:44:47;;;;;;;12.20;7.80;;;;;;;;;;5126408;27;20662;-83
2021/12/20 13:47:18;;;;;;;16.40;8.88;;;4.30;99.90;;;;;;5121146;27;20535;-83
2021/12/20 13:49:46;;;;;;;12.27;8.55;;;;;;;;;;5115422;27;20236;-83
2021/12/20 13:52:13;;;;;;;11.52;9.18;;;;;;;;;;5114479;27;20232;-83
2021/12/20 13:54:41;;;;;;;15.55;9.80;;;4.20;99.90;;;;;;5125073;27;20233;-83
2021/12/20 13:57:14;;;;;;;13.18;7.82;;;4.10;99.90;;;;;;5121103;27;20262;-83
2021/12/20 13:59:48;;;;;;;16.00;8.82;;;4.00;99.90;;;;;;5116841;27;20218;-83
2021/12/20 14:02:18;;;;;;;15.63;9.13;;;3.90;99.90;;;;;;5121345;27;20285;-82
2021/12/20 14:04:47;;;;;;;13.60;8.30;;;4.00;99.90;;;;;;5120858;27;20295;-82
2021/12/20 14:07:30;;;;;;;10.75;6.57;;;4.00;99.90;;;;;;5116275;27;20214;-82
2021/12/20 14:10:07;;;;;;;10.90;7.55;;;3.80;99.90;;;;;;5119855;27;20229;-83